sensor_id;sensor_type;location;lat;lon;timestamp;pressure;altitude;pressure_sealevel;temperature;humidity
2785;BME280;57944;48.722;9.316;2023-01-05T00:02:14;98526.38;;;10.09;100.00
2785;BME280;57944;48.722;9.316;2023-01-05T00:04:50;98525.56;;;9.93;100.00
2785;BME280;57944;48.722;9.316;2023-01-05T00:07:20;98525.56;;;9.93;100.00
2785;BME280;57944;48.722;9.316;2023-01-05T00:09:50;98514.59;;;9.93;100.00
2785;BME280;57944;48.722;9.316;2023-01-05T00:12:20;98522.94;;;9.87;100.00
2785;BME280;57944;48.722;9.316;2023-01-05T00:15:04;98512.63;;;9.80;100.00
2785;BME280;57944;48.722;9.316;2023-01-05T00:17:49;98496.78;;;9.93;100.00
2785;BME280;57944;48.722;9.316;2023-01-05T00:20:31;98507.75;;;9.93;100.00
2785;BME280;57944;48.722;9.316;2023-01-05T00:23:14;98494.59;;;10.04;100.00
2785;BME280;57944;48.722;9.316;2023-01-05T00:25:47;98501.50;;;10.11;100.00
2785;BME280;57944;48.722;9.316;2023-01-05T00:28:17;98498.09;;;10.03;100.00
2785;BME280;57944;48.722;9.316;2023-01-05T00:30:47;98493.88;;;10.11;100.00
2785;BME280;57944;48.722;9.316;2023-01-05T00:33:19;98492.84;;;10.20;100.00
2785;BME280;57944;48.722;9.316;2023-01-05T00:35:50;98491.94;;;10.13;100.00
2785;BME280;57944;48.722;9.316;2023-01-05T00:38:20;98503.63;;;10.22;100.00
2785;BME280;57944;48.722;9.316;2023-01-05T00:40:50;98495.19;;;10.21;100.00
2785;BME280;57944;48.722;9.316;2023-01-05T00:43:21;98488.25;;;10.15;100.00
2785;BME280;57944;48.722;9.316;2023-01-05T00:45:51;98500.72;;;10.25;100.00
2785;BME280;57944;48.722;9.316;2023-01-05T00:48:24;98505.31;;;10.44;100.00
2785;BME280;57944;48.722;9.316;2023-01-05T00:50:54;98499.94;;;10.54;100.00
2785;BME280;57944;48.722;9.316;2023-01-05T00:53:24;98503.69;;;10.58;100.00
2785;BME280;57944;48.722;9.316;2023-01-05T00:55:57;98499.66;;;10.64;100.00
2785;BME280;57944;48.722;9.316;2023-01-05T00:58:27;98520.50;;;10.67;100.00
2785;BME280;57944;48.722;9.316;2023-01-05T01:00:57;98513.06;;;10.72;100.00
2785;BME280;57944;48.722;9.316;2023-01-05T01:03:30;98518.97;;;10.73;100.00
2785;BME280;57944;48.722;9.316;2023-01-05T01:06:00;98521.72;;;10.57;100.00
2785;BME280;57944;48.722;9.316;2023-01-05T01:08:30;98517.25;;;10.59;100.00
2785;BME280;57944;48.722;9.316;2023-01-05T01:11:04;98522.09;;;10.54;100.00
2785;BME280;57944;48.722;9.316;2023-01-05T01:13:35;98528.66;;;10.63;100.00
2785;BME280;57944;48.722;9.316;2023-01-05T01:16:06;98526.84;;;10.57;100.00
2785;BME280;57944;48.722;9.316;2023-01-05T01:18:40;98532.56;;;10.59;100.00
2785;BME280;57944;48.722;9.316;2023-01-05T01:21:10;98520.66;;;10.66;100.00
2785;BME280;57944;48.722;9.316;2023-01-05T01:23:41;98528.59;;;10.56;100.00
2785;BME280;57944;48.722;9.316;2023-01-05T01:26:12;98526.13;;;10.63;100.00
2785;BME280;57944;48.722;9.316;2023-01-05T01:28:45;98523.59;;;10.48;100.00
2785;BME280;57944;48.722;9.316;2023-01-05T01:31:15;98522.69;;;10.56;100.00
2785;BME280;57944;48.722;9.316;2023-01-05T01:33:48;98514.00;;;10.65;100.00
2785;BME280;57944;48.722;9.316;2023-01-05T01:36:18;98513.44;;;10.69;100.00
2785;BME280;57944;48.722;9.316;2023-01-05T01:38:48;98515.16;;;10.47;100.00
2785;BME280;57944;48.722;9.316;2023-01-05T01:41:18;98514.41;;;10.68;100.00
2785;BME280;57944;48.722;9.316;2023-01-05T01:43:51;98510.34;;;10.74;100.00
2785;BME280;57944;48.722;9.316;2023-01-05T01:46:25;98514.94;;;10.64;100.00
2785;BME280;57944;48.722;9.316;2023-01-05T01:49:02;98502.34;;;10.77;100.00
2785;BME280;57944;48.722;9.316;2023-01-05T01:51:39;98496.28;;;10.78;100.00
2785;BME280;57944;48.722;9.316;2023-01-05T01:54:13;98500.31;;;10.72;100.00
2785;BME280;57944;48.722;9.316;2023-01-05T01:56:50;98503.00;;;10.64;100.00
2785;BME280;57944;48.722;9.316;2023-01-05T01:59:24;98494.34;;;10.80;100.00
2785;BME280;57944;48.722;9.316;2023-01-05T02:01:59;98484.38;;;10.85;100.00
2785;BME280;57944;48.722;9.316;2023-01-05T02:04:34;98491.53;;;10.75;100.00
2785;BME280;57944;48.722;9.316;2023-01-05T02:07:08;98484.25;;;10.72;100.00
2785;BME280;57944;48.722;9.316;2023-01-05T02:09:41;98480.06;;;10.64;100.00
2785;BME280;57944;48.722;9.316;2023-01-05T02:12:28;98476.47;;;10.59;100.00
2785;BME280;57944;48.722;9.316;2023-01-05T02:15:19;98463.84;;;10.72;100.00
2785;BME280;57944;48.722;9.316;2023-01-05T02:18:07;98465.09;;;10.61;100.00
2785;BME280;57944;48.722;9.316;2023-01-05T02:21:00;98469.69;;;10.66;100.00
2785;BME280;57944;48.722;9.316;2023-01-05T02:27:29;98478.09;;;10.66;100.00
2785;BME280;57944;48.722;9.316;2023-01-05T02:33:59;98471.06;;;10.68;100.00
2785;BME280;57944;48.722;9.316;2023-01-05T02:36:43;98472.31;;;10.58;100.00
2785;BME280;57944;48.722;9.316;2023-01-05T02:39:20;98463.59;;;10.67;100.00
2785;BME280;57944;48.722;9.316;2023-01-05T02:41:58;98469.16;;;10.70;100.00
2785;BME280;57944;48.722;9.316;2023-01-05T02:44:32;98459.41;;;10.59;100.00
2785;BME280;57944;48.722;9.316;2023-01-05T02:47:06;98458.38;;;10.54;100.00
2785;BME280;57944;48.722;9.316;2023-01-05T02:50:12;98449.78;;;10.76;100.00
2785;BME280;57944;48.722;9.316;2023-01-05T02:52:51;98455.25;;;10.73;100.00
2785;BME280;57944;48.722;9.316;2023-01-05T02:55:28;98451.78;;;10.59;100.00
2785;BME280;57944;48.722;9.316;2023-01-05T02:58:09;98457.22;;;10.56;100.00
2785;BME280;57944;48.722;9.316;2023-01-05T03:00:46;98453.06;;;10.70;100.00
2785;BME280;57944;48.722;9.316;2023-01-05T03:03:28;98454.63;;;10.71;100.00
2785;BME280;57944;48.722;9.316;2023-01-05T03:06:09;98461.19;;;10.59;100.00
2785;BME280;57944;48.722;9.316;2023-01-05T03:08:50;98453.28;;;10.54;100.00
2785;BME280;57944;48.722;9.316;2023-01-05T03:11:30;98455.56;;;10.48;100.00
2785;BME280;57944;48.722;9.316;2023-01-05T03:14:20;98445.47;;;10.40;100.00
2785;BME280;57944;48.722;9.316;2023-01-05T03:16:55;98446.47;;;10.39;100.00
2785;BME280;57944;48.722;9.316;2023-01-05T03:19:29;98457.75;;;10.51;100.00
2785;BME280;57944;48.722;9.316;2023-01-05T03:22:12;98454.84;;;10.55;100.00
2785;BME280;57944;48.722;9.316;2023-01-05T03:24:57;98450.53;;;10.55;100.00
2785;BME280;57944;48.722;9.316;2023-01-05T03:27:42;98450.84;;;10.67;100.00
2785;BME280;57944;48.722;9.316;2023-01-05T03:30:38;98454.63;;;10.71;100.00
2785;BME280;57944;48.722;9.316;2023-01-05T03:33:35;98464.88;;;10.78;100.00
2785;BME280;57944;48.722;9.316;2023-01-05T03:36:25;98466.41;;;10.72;100.00
2785;BME280;57944;48.722;9.316;2023-01-05T03:39:02;98456.34;;;10.49;100.00
2785;BME280;57944;48.722;9.316;2023-01-05T03:41:34;98453.56;;;10.44;100.00
2785;BME280;57944;48.722;9.316;2023-01-05T03:44:06;98452.88;;;10.35;100.00
2785;BME280;57944;48.722;9.316;2023-01-05T03:46:39;98440.28;;;10.19;100.00
2785;BME280;57944;48.722;9.316;2023-01-05T03:49:10;98451.09;;;10.21;100.00
2785;BME280;57944;48.722;9.316;2023-01-05T03:51:40;98448.50;;;10.29;100.00
2785;BME280;57944;48.722;9.316;2023-01-05T03:54:13;98447.16;;;10.33;100.00
2785;BME280;57944;48.722;9.316;2023-01-05T03:56:45;98443.28;;;10.37;100.00
2785;BME280;57944;48.722;9.316;2023-01-05T03:59:17;98450.31;;;10.35;100.00
2785;BME280;57944;48.722;9.316;2023-01-05T04:01:48;98449.59;;;10.41;100.00
2785;BME280;57944;48.722;9.316;2023-01-05T04:04:19;98443.09;;;10.54;100.00
2785;BME280;57944;48.722;9.316;2023-01-05T04:06:49;98445.91;;;10.59;100.00
2785;BME280;57944;48.722;9.316;2023-01-05T04:09:23;98447.03;;;10.56;100.00
2785;BME280;57944;48.722;9.316;2023-01-05T04:11:52;98452.09;;;10.71;100.00
2785;BME280;57944;48.722;9.316;2023-01-05T04:14:22;98452.25;;;10.69;100.00
2785;BME280;57944;48.722;9.316;2023-01-05T04:16:52;98450.75;;;10.75;100.00
2785;BME280;57944;48.722;9.316;2023-01-05T04:19:23;98448.03;;;10.77;100.00
2785;BME280;57944;48.722;9.316;2023-01-05T04:21:55;98448.19;;;10.75;100.00
2785;BME280;57944;48.722;9.316;2023-01-05T04:24:31;98450.63;;;10.62;100.00
2785;BME280;57944;48.722;9.316;2023-01-05T04:27:03;98441.53;;;10.74;100.00
2785;BME280;57944;48.722;9.316;2023-01-05T04:29:33;98447.25;;;10.76;100.00
2785;BME280;57944;48.722;9.316;2023-01-05T04:32:04;98443.09;;;10.75;100.00
2785;BME280;57944;48.722;9.316;2023-01-05T04:34:35;98433.88;;;10.74;100.00
2785;BME280;57944;48.722;9.316;2023-01-05T04:37:05;98436.59;;;10.72;100.00
2785;BME280;57944;48.722;9.316;2023-01-05T04:39:37;98430.78;;;10.57;100.00
2785;BME280;57944;48.722;9.316;2023-01-05T04:42:08;98435.34;;;10.62;100.00
2785;BME280;57944;48.722;9.316;2023-01-05T04:44:39;98428.94;;;10.51;100.00
2785;BME280;57944;48.722;9.316;2023-01-05T04:47:10;98431.41;;;10.44;100.00
2785;BME280;57944;48.722;9.316;2023-01-05T04:49:41;98432.94;;;10.60;100.00
2785;BME280;57944;48.722;9.316;2023-01-05T04:52:11;98438.34;;;10.50;100.00
2785;BME280;57944;48.722;9.316;2023-01-05T04:54:44;98448.19;;;10.54;100.00
2785;BME280;57944;48.722;9.316;2023-01-05T04:57:15;98452.84;;;10.50;100.00
2785;BME280;57944;48.722;9.316;2023-01-05T04:59:46;98443.28;;;10.37;100.00
2785;BME280;57944;48.722;9.316;2023-01-05T05:02:16;98447.88;;;10.27;100.00
2785;BME280;57944;48.722;9.316;2023-01-05T05:04:48;98439.59;;;10.25;100.00
2785;BME280;57944;48.722;9.316;2023-01-05T05:07:20;98450.31;;;10.35;100.00
2785;BME280;57944;48.722;9.316;2023-01-05T05:09:54;98444.25;;;10.36;100.00
2785;BME280;57944;48.722;9.316;2023-01-05T05:12:24;98447.06;;;10.41;100.00
2785;BME280;57944;48.722;9.316;2023-01-05T05:14:54;98456.03;;;10.37;100.00
2785;BME280;57944;48.722;9.316;2023-01-05T05:17:25;98452.03;;;10.49;100.00
2785;BME280;57944;48.722;9.316;2023-01-05T05:19:55;98449.59;;;10.56;100.00
2785;BME280;57944;48.722;9.316;2023-01-05T05:22:25;98458.00;;;10.57;100.00
2785;BME280;57944;48.722;9.316;2023-01-05T05:25:00;98448.06;;;10.62;100.00
2785;BME280;57944;48.722;9.316;2023-01-05T05:27:30;98449.75;;;10.55;100.00
2785;BME280;57944;48.722;9.316;2023-01-05T05:30:00;98453.19;;;10.62;100.00
2785;BME280;57944;48.722;9.316;2023-01-05T05:32:30;98458.38;;;10.54;100.00
2785;BME280;57944;48.722;9.316;2023-01-05T05:35:08;98469.78;;;10.58;100.00
2785;BME280;57944;48.722;9.316;2023-01-05T05:37:38;98475.88;;;10.42;100.00
2785;BME280;57944;48.722;9.316;2023-01-05T05:40:12;98479.13;;;10.21;100.00
2785;BME280;57944;48.722;9.316;2023-01-05T05:42:42;98477.38;;;10.06;100.00
2785;BME280;57944;48.722;9.316;2023-01-05T05:45:12;98479.66;;;10.01;100.00
2785;BME280;57944;48.722;9.316;2023-01-05T05:47:42;98488.63;;;9.97;100.00
2785;BME280;57944;48.722;9.316;2023-01-05T05:50:12;98498.97;;;9.81;100.00
2785;BME280;57944;48.722;9.316;2023-01-05T05:52:46;98498.63;;;9.84;100.00
2785;BME280;57944;48.722;9.316;2023-01-05T05:55:18;98501.75;;;9.86;100.00
2785;BME280;57944;48.722;9.316;2023-01-05T05:57:48;98504.47;;;9.70;100.00
2785;BME280;57944;48.722;9.316;2023-01-05T06:00:18;98503.94;;;9.74;100.00
2785;BME280;57944;48.722;9.316;2023-01-05T06:02:48;98511.41;;;9.76;100.00
2785;BME280;57944;48.722;9.316;2023-01-05T06:05:19;98522.00;;;9.65;100.00
2785;BME280;57944;48.722;9.316;2023-01-05T06:07:49;98527.16;;;9.56;100.00
2785;BME280;57944;48.722;9.316;2023-01-05T06:10:21;98535.94;;;9.54;100.00
2785;BME280;57944;48.722;9.316;2023-01-05T06:12:52;98539.09;;;9.56;100.00
2785;BME280;57944;48.722;9.316;2023-01-05T06:15:23;98539.34;;;9.61;100.00
2785;BME280;57944;48.722;9.316;2023-01-05T06:17:53;98541.19;;;9.52;100.00
2785;BME280;57944;48.722;9.316;2023-01-05T06:20:23;98547.88;;;9.53;100.00
2785;BME280;57944;48.722;9.316;2023-01-05T06:22:53;98560.88;;;9.58;100.00
2785;BME280;57944;48.722;9.316;2023-01-05T06:25:26;98560.19;;;9.65;100.00
2785;BME280;57944;48.722;9.316;2023-01-05T06:27:56;98558.59;;;9.63;100.00
2785;BME280;57944;48.722;9.316;2023-01-05T06:30:28;98562.09;;;9.62;100.00
2785;BME280;57944;48.722;9.316;2023-01-05T06:32:58;98565.28;;;9.65;100.00
2785;BME280;57944;48.722;9.316;2023-01-05T06:35:28;98567.13;;;9.71;100.00
2785;BME280;57944;48.722;9.316;2023-01-05T06:37:58;98574.31;;;9.67;100.00
2785;BME280;57944;48.722;9.316;2023-01-05T06:40:30;98576.53;;;9.70;100.00
2785;BME280;57944;48.722;9.316;2023-01-05T06:43:00;98592.28;;;9.89;100.00
2785;BME280;57944;48.722;9.316;2023-01-05T06:45:30;98587.88;;;9.82;100.00
2785;BME280;57944;48.722;9.316;2023-01-05T06:48:00;98593.22;;;9.73;100.00
2785;BME280;57944;48.722;9.316;2023-01-05T06:50:30;98592.09;;;9.75;100.00
2785;BME280;57944;48.722;9.316;2023-01-05T06:53:00;98595.81;;;9.65;100.00
2785;BME280;57944;48.722;9.316;2023-01-05T06:55:33;98588.53;;;9.61;100.00
2785;BME280;57944;48.722;9.316;2023-01-05T06:58:03;98599.22;;;9.57;100.00
2785;BME280;57944;48.722;9.316;2023-01-05T07:00:33;98595.69;;;9.58;100.00
2785;BME280;57944;48.722;9.316;2023-01-05T07:03:03;98601.59;;;9.58;100.00
2785;BME280;57944;48.722;9.316;2023-01-05T07:05:34;98606.75;;;9.50;100.00
2785;BME280;57944;48.722;9.316;2023-01-05T07:08:05;98604.19;;;9.50;100.00
2785;BME280;57944;48.722;9.316;2023-01-05T07:10:38;98604.00;;;9.52;100.00
2785;BME280;57944;48.722;9.316;2023-01-05T07:13:08;98592.88;;;9.53;100.00
2785;BME280;57944;48.722;9.316;2023-01-05T07:15:38;98604.41;;;9.40;100.00
2785;BME280;57944;48.722;9.316;2023-01-05T07:18:08;98614.47;;;9.34;100.00
2785;BME280;57944;48.722;9.316;2023-01-05T07:20:39;98620.84;;;9.30;100.00
2785;BME280;57944;48.722;9.316;2023-01-05T07:23:09;98628.81;;;9.27;100.00
2785;BME280;57944;48.722;9.316;2023-01-05T07:25:41;98627.22;;;9.26;100.00
2785;BME280;57944;48.722;9.316;2023-01-05T07:28:12;98631.06;;;9.22;100.00
2785;BME280;57944;48.722;9.316;2023-01-05T07:30:42;98628.69;;;9.20;100.00
2785;BME280;57944;48.722;9.316;2023-01-05T07:33:11;98635.88;;;9.16;100.00
2785;BME280;57944;48.722;9.316;2023-01-05T07:35:41;98627.91;;;9.20;100.00
2785;BME280;57944;48.722;9.316;2023-01-05T07:38:12;98636.81;;;9.15;100.00
2785;BME280;57944;48.722;9.316;2023-01-05T07:40:44;98634.25;;;9.15;100.00
2785;BME280;57944;48.722;9.316;2023-01-05T07:43:14;98640.31;;;9.14;100.00
2785;BME280;57944;48.722;9.316;2023-01-05T07:45:45;98640.44;;;9.21;100.00
2785;BME280;57944;48.722;9.316;2023-01-05T07:48:15;98643.16;;;9.20;100.00
2785;BME280;57944;48.722;9.316;2023-01-05T07:50:49;98642.34;;;9.19;100.00
2785;BME280;57944;48.722;9.316;2023-01-05T07:53:19;98639.19;;;9.17;100.00
2785;BME280;57944;48.722;9.316;2023-01-05T07:55:59;98644.06;;;9.27;100.00
2785;BME280;57944;48.722;9.316;2023-01-05T07:58:30;98650.28;;;9.24;100.00
2785;BME280;57944;48.722;9.316;2023-01-05T08:01:05;98648.03;;;9.29;100.00
2785;BME280;57944;48.722;9.316;2023-01-05T08:03:36;98656.59;;;9.36;100.00
2785;BME280;57944;48.722;9.316;2023-01-05T08:06:09;98660.25;;;9.34;100.00
2785;BME280;57944;48.722;9.316;2023-01-05T08:08:40;98664.22;;;9.36;100.00
2785;BME280;57944;48.722;9.316;2023-01-05T08:11:15;98671.34;;;9.41;100.00
2785;BME280;57944;48.722;9.316;2023-01-05T08:13:47;98672.91;;;9.50;100.00
2785;BME280;57944;48.722;9.316;2023-01-05T08:16:32;98669.38;;;9.51;100.00
2785;BME280;57944;48.722;9.316;2023-01-05T08:19:03;98673.50;;;9.52;100.00
2785;BME280;57944;48.722;9.316;2023-01-05T08:21:37;98675.31;;;9.67;100.00
2785;BME280;57944;48.722;9.316;2023-01-05T08:24:07;98680.41;;;9.67;100.00
2785;BME280;57944;48.722;9.316;2023-01-05T08:26:40;98675.00;;;9.70;100.00
2785;BME280;57944;48.722;9.316;2023-01-05T08:29:10;98678.44;;;9.77;100.00
2785;BME280;57944;48.722;9.316;2023-01-05T08:31:40;98684.16;;;9.79;100.00
2785;BME280;57944;48.722;9.316;2023-01-05T08:34:10;98686.31;;;9.90;100.00
2785;BME280;57944;48.722;9.316;2023-01-05T08:36:41;98685.97;;;9.93;100.00
2785;BME280;57944;48.722;9.316;2023-01-05T08:39:11;98689.59;;;9.99;100.00
2785;BME280;57944;48.722;9.316;2023-01-05T08:41:44;98689.69;;;10.05;100.00
2785;BME280;57944;48.722;9.316;2023-01-05T08:44:14;98700.28;;;10.17;100.00
2785;BME280;57944;48.722;9.316;2023-01-05T08:46:44;98713.13;;;10.24;100.00
2785;BME280;57944;48.722;9.316;2023-01-05T08:49:14;98699.25;;;10.26;100.00
2785;BME280;57944;48.722;9.316;2023-01-05T08:51:44;98711.00;;;10.36;100.00
2785;BME280;57944;48.722;9.316;2023-01-05T08:54:14;98704.41;;;10.41;100.00
2785;BME280;57944;48.722;9.316;2023-01-05T08:56:47;98710.00;;;10.60;100.00
2785;BME280;57944;48.722;9.316;2023-01-05T08:59:19;98713.09;;;10.70;100.00
2785;BME280;57944;48.722;9.316;2023-01-05T09:01:48;98712.03;;;10.79;100.00
2785;BME280;57944;48.722;9.316;2023-01-05T09:04:19;98718.28;;;10.77;100.00
2785;BME280;57944;48.722;9.316;2023-01-05T09:06:49;98724.44;;;10.82;100.00
2785;BME280;57944;48.722;9.316;2023-01-05T09:09:19;98723.38;;;10.77;100.00
2785;BME280;57944;48.722;9.316;2023-01-05T09:11:53;98725.50;;;10.73;100.00
2785;BME280;57944;48.722;9.316;2023-01-05T09:14:23;98734.22;;;10.56;100.00
2785;BME280;57944;48.722;9.316;2023-01-05T09:16:53;98743.81;;;10.54;100.00
2785;BME280;57944;48.722;9.316;2023-01-05T09:19:34;98753.47;;;10.43;100.00
2785;BME280;57944;48.722;9.316;2023-01-05T09:22:04;98751.88;;;10.42;100.00
2785;BME280;57944;48.722;9.316;2023-01-05T09:24:34;98759.69;;;10.41;100.00
2785;BME280;57944;48.722;9.316;2023-01-05T09:27:07;98760.94;;;10.45;100.00
2785;BME280;57944;48.722;9.316;2023-01-05T09:29:37;98756.28;;;10.48;100.00
2785;BME280;57944;48.722;9.316;2023-01-05T09:32:07;98758.22;;;10.46;100.00
2785;BME280;57944;48.722;9.316;2023-01-05T09:34:37;98776.84;;;10.47;100.00
2785;BME280;57944;48.722;9.316;2023-01-05T09:37:07;98770.03;;;10.62;100.00
2785;BME280;57944;48.722;9.316;2023-01-05T09:39:37;98772.81;;;10.52;100.00
2785;BME280;57944;48.722;9.316;2023-01-05T09:42:15;98778.19;;;10.58;100.00
2785;BME280;57944;48.722;9.316;2023-01-05T09:44:49;98778.38;;;10.56;100.00
2785;BME280;57944;48.722;9.316;2023-01-05T09:47:30;98771.81;;;10.77;100.00
2785;BME280;57944;48.722;9.316;2023-01-05T09:50:05;98768.13;;;10.79;100.00
2785;BME280;57944;48.722;9.316;2023-01-05T09:52:36;98776.34;;;10.89;100.00
2785;BME280;57944;48.722;9.316;2023-01-05T09:55:13;98794.06;;;10.83;100.00
2785;BME280;57944;48.722;9.316;2023-01-05T09:57:53;98784.78;;;10.90;100.00
2785;BME280;57944;48.722;9.316;2023-01-05T10:00:26;98787.50;;;10.88;100.00
2785;BME280;57944;48.722;9.316;2023-01-05T10:03:00;98783.00;;;10.90;100.00
2785;BME280;57944;48.722;9.316;2023-01-05T10:05:33;98775.56;;;11.04;100.00
2785;BME280;57944;48.722;9.316;2023-01-05T10:08:12;98778.78;;;10.98;100.00
2785;BME280;57944;48.722;9.316;2023-01-05T10:10:49;98787.59;;;11.10;100.00
2785;BME280;57944;48.722;9.316;2023-01-05T10:13:40;98777.84;;;10.99;100.00
2785;BME280;57944;48.722;9.316;2023-01-05T10:16:16;98781.81;;;11.16;100.00
2785;BME280;57944;48.722;9.316;2023-01-05T10:18:53;98787.53;;;11.18;100.00
2785;BME280;57944;48.722;9.316;2023-01-05T10:21:33;98788.66;;;11.15;100.00
2785;BME280;57944;48.722;9.316;2023-01-05T10:24:23;98779.06;;;11.32;100.00
2785;BME280;57944;48.722;9.316;2023-01-05T10:27:06;98775.91;;;11.30;100.00
2785;BME280;57944;48.722;9.316;2023-01-05T10:30:08;98780.66;;;11.33;100.00
2785;BME280;57944;48.722;9.316;2023-01-05T10:32:56;98781.25;;;11.50;100.00
2785;BME280;57944;48.722;9.316;2023-01-05T10:35:58;98771.13;;;11.57;100.00
2785;BME280;57944;48.722;9.316;2023-01-05T10:38:53;98769.59;;;11.77;100.00
2785;BME280;57944;48.722;9.316;2023-01-05T10:41:35;98772.13;;;11.92;100.00
2785;BME280;57944;48.722;9.316;2023-01-05T10:44:50;98768.97;;;11.75;100.00
2785;BME280;57944;48.722;9.316;2023-01-05T10:47:27;98768.94;;;11.54;100.00
2785;BME280;57944;48.722;9.316;2023-01-05T10:49:59;98768.69;;;11.49;100.00
2785;BME280;57944;48.722;9.316;2023-01-05T10:52:30;98765.06;;;11.58;100.00
2785;BME280;57944;48.722;9.316;2023-01-05T10:55:01;98771.19;;;11.63;100.00
2785;BME280;57944;48.722;9.316;2023-01-05T10:57:37;98761.03;;;11.85;100.00
2785;BME280;57944;48.722;9.316;2023-01-05T11:00:13;98762.63;;;12.01;100.00
2785;BME280;57944;48.722;9.316;2023-01-05T11:03:00;98763.31;;;11.95;100.00
2785;BME280;57944;48.722;9.316;2023-01-05T11:05:36;98764.69;;;12.12;100.00
2785;BME280;57944;48.722;9.316;2023-01-05T11:08:15;98768.53;;;11.87;100.00
2785;BME280;57944;48.722;9.316;2023-01-05T11:10:52;98766.63;;;11.74;100.00
2785;BME280;57944;48.722;9.316;2023-01-05T11:13:31;98760.97;;;11.93;100.00
2785;BME280;57944;48.722;9.316;2023-01-05T11:16:11;98761.94;;;12.14;100.00
2785;BME280;57944;48.722;9.316;2023-01-05T11:18:51;98765.03;;;12.30;100.00
2785;BME280;57944;48.722;9.316;2023-01-05T11:21:24;98760.19;;;11.93;100.00
2785;BME280;57944;48.722;9.316;2023-01-05T11:23:57;98756.38;;;11.89;100.00
2785;BME280;57944;48.722;9.316;2023-01-05T11:26:34;98768.63;;;11.93;100.00
2785;BME280;57944;48.722;9.316;2023-01-05T11:29:12;98776.41;;;11.70;100.00
2785;BME280;57944;48.722;9.316;2023-01-05T11:31:48;98772.66;;;11.51;100.00
2785;BME280;57944;48.722;9.316;2023-01-05T11:34:36;98771.19;;;11.63;100.00
2785;BME280;57944;48.722;9.316;2023-01-05T11:37:23;98761.41;;;11.67;100.00
2785;BME280;57944;48.722;9.316;2023-01-05T11:39:56;98750.75;;;11.78;100.00
2785;BME280;57944;48.722;9.316;2023-01-05T11:42:31;98751.91;;;11.91;100.00
2785;BME280;57944;48.722;9.316;2023-01-05T11:45:19;98755.09;;;11.63;100.00
2785;BME280;57944;48.722;9.316;2023-01-05T11:47:55;98747.34;;;11.71;100.00
2785;BME280;57944;48.722;9.316;2023-01-05T11:50:32;98762.91;;;11.61;100.00
2785;BME280;57944;48.722;9.316;2023-01-05T11:53:24;98757.38;;;11.58;100.00
2785;BME280;57944;48.722;9.316;2023-01-05T11:56:00;98754.47;;;11.61;100.00
2785;BME280;57944;48.722;9.316;2023-01-05T11:58:32;98750.88;;;11.70;100.00
2785;BME280;57944;48.722;9.316;2023-01-05T12:01:51;98761.31;;;11.75;100.00
2785;BME280;57944;48.722;9.316;2023-01-05T12:04:52;98748.56;;;11.90;100.00
2785;BME280;57944;48.722;9.316;2023-01-05T12:07:32;98753.22;;;12.08;100.00
2785;BME280;57944;48.722;9.316;2023-01-05T12:10:24;98748.13;;;12.08;100.00
2785;BME280;57944;48.722;9.316;2023-01-05T12:13:09;98749.94;;;11.78;100.00
2785;BME280;57944;48.722;9.316;2023-01-05T12:16:06;98747.16;;;11.88;100.00
2785;BME280;57944;48.722;9.316;2023-01-05T12:19:08;98741.69;;;11.76;100.00
2785;BME280;57944;48.722;9.316;2023-01-05T12:21:53;98750.78;;;12.00;100.00
2785;BME280;57944;48.722;9.316;2023-01-05T12:24:52;98753.47;;;11.92;100.00
2785;BME280;57944;48.722;9.316;2023-01-05T12:27:47;98750.78;;;12.00;100.00
2785;BME280;57944;48.722;9.316;2023-01-05T12:30:38;98757.63;;;12.14;100.00
2785;BME280;57944;48.722;9.316;2023-01-05T12:34:03;98751.69;;;11.92;100.00
2785;BME280;57944;48.722;9.316;2023-01-05T12:36:57;98756.94;;;11.69;100.00
2785;BME280;57944;48.722;9.316;2023-01-05T12:40:22;98755.16;;;11.70;100.00
2785;BME280;57944;48.722;9.316;2023-01-05T12:43:01;98753.53;;;11.62;100.00
2785;BME280;57944;48.722;9.316;2023-01-05T12:45:58;98752.97;;;11.67;100.00
2785;BME280;57944;48.722;9.316;2023-01-05T12:48:33;98757.50;;;11.65;100.00
2785;BME280;57944;48.722;9.316;2023-01-05T12:51:14;98761.44;;;11.52;100.00
2785;BME280;57944;48.722;9.316;2023-01-05T12:53:55;98760.03;;;11.65;100.00
2785;BME280;57944;48.722;9.316;2023-01-05T12:56:34;98768.31;;;11.52;100.00
2785;BME280;57944;48.722;9.316;2023-01-05T12:59:16;98769.41;;;11.43;100.00
2785;BME280;57944;48.722;9.316;2023-01-05T13:01:59;98772.03;;;11.49;100.00
2785;BME280;57944;48.722;9.316;2023-01-05T13:04:39;98771.22;;;11.49;100.00
2785;BME280;57944;48.722;9.316;2023-01-05T13:07:22;98776.69;;;11.46;100.00
2785;BME280;57944;48.722;9.316;2023-01-05T13:09:59;98777.22;;;11.41;100.00
2785;BME280;57944;48.722;9.316;2023-01-05T13:12:35;98787.50;;;11.48;100.00
2785;BME280;57944;48.722;9.316;2023-01-05T13:15:15;98777.78;;;11.73;100.00
2785;BME280;57944;48.722;9.316;2023-01-05T13:17:50;98771.03;;;11.65;100.00
2785;BME280;57944;48.722;9.316;2023-01-05T13:20:32;98776.78;;;11.37;100.00
2785;BME280;57944;48.722;9.316;2023-01-05T13:23:14;98779.31;;;11.52;100.00
2785;BME280;57944;48.722;9.316;2023-01-05T13:25:53;98787.50;;;11.48;100.00
2785;BME280;57944;48.722;9.316;2023-01-05T13:28:27;98779.44;;;11.29;100.00
2785;BME280;57944;48.722;9.316;2023-01-05T13:35:00;98773.59;;;11.65;100.00
2785;BME280;57944;48.722;9.316;2023-01-05T13:38:29;98771.31;;;11.40;100.00
2785;BME280;57944;48.722;9.316;2023-01-05T13:41:24;98769.22;;;11.59;100.00
2785;BME280;57944;48.722;9.316;2023-01-05T13:44:40;98774.25;;;11.37;100.00
2785;BME280;57944;48.722;9.316;2023-01-05T13:47:42;98771.31;;;11.40;100.00
2785;BME280;57944;48.722;9.316;2023-01-05T13:50:45;98773.00;;;11.33;100.00
2785;BME280;57944;48.722;9.316;2023-01-05T13:53:22;98772.03;;;11.34;100.00
2785;BME280;57944;48.722;9.316;2023-01-05T13:55:57;98770.97;;;11.44;100.00
2785;BME280;57944;48.722;9.316;2023-01-05T13:58:49;98770.81;;;11.45;100.00
2785;BME280;57944;48.722;9.316;2023-01-05T14:01:35;98775.66;;;11.40;100.00
2785;BME280;57944;48.722;9.316;2023-01-05T14:04:17;98769.03;;;11.31;100.00